sensor_id;sensor_type;location;lat;lon;timestamp;temperature;humidity
16995;DHT22;8614;48.522;9.206;2023-03-01T03:03:05;-0.30;99.90
16995;DHT22;8614;48.522;9.206;2023-03-01T03:05:34;-0.20;99.90
16995;DHT22;8614;48.522;9.206;2023-03-01T03:08:02;-0.20;99.90
16995;DHT22;8614;48.522;9.206;2023-03-01T03:10:36;-0.20;99.90
16995;DHT22;8614;48.522;9.206;2023-03-01T03:13:06;-0.20;99.90
16995;DHT22;8614;48.522;9.206;2023-03-01T03:15:34;-0.20;99.90
16995;DHT22;8614;48.522;9.206;2023-03-01T03:18:05;-0.20;99.90
16995;DHT22;8614;48.522;9.206;2023-03-01T03:20:33;-0.20;99.90
16995;DHT22;8614;48.522;9.206;2023-03-01T03:23:00;-0.20;99.90
16995;DHT22;8614;48.522;9.206;2023-03-01T03:25:28;-0.20;99.90
16995;DHT22;8614;48.522;9.206;2023-03-01T03:27:56;-0.20;99.90
16995;DHT22;8614;48.522;9.206;2023-03-01T03:30:25;-0.10;99.90
16995;DHT22;8614;48.522;9.206;2023-03-01T03:32:52;-0.20;99.90
16995;DHT22;8614;48.522;9.206;2023-03-01T03:35:22;-0.20;99.90
16995;DHT22;8614;48.522;9.206;2023-03-01T03:37:51;-0.20;99.90
16995;DHT22;8614;48.522;9.206;2023-03-01T03:40:34;-0.20;99.90
16995;DHT22;8614;48.522;9.206;2023-03-01T03:43:02;-0.20;99.90
16995;DHT22;8614;48.522;9.206;2023-03-01T03:45:29;-0.20;99.90
16995;DHT22;8614;48.522;9.206;2023-03-01T03:47:59;-0.10;99.90
16995;DHT22;8614;48.522;9.206;2023-03-01T03:50:27;-0.10;99.90
16995;DHT22;8614;48.522;9.206;2023-03-01T03:52:54;0.00;99.90
16995;DHT22;8614;48.522;9.206;2023-03-01T03:55:21;-0.10;99.90
16995;DHT22;8614;48.522;9.206;2023-03-01T03:57:48;-0.10;99.90
16995;DHT22;8614;48.522;9.206;2023-03-01T04:00:18;-0.10;99.90
16995;DHT22;8614;48.522;9.206;2023-03-01T04:02:47;-0.10;99.90
16995;DHT22;8614;48.522;9.206;2023-03-01T04:05:17;-0.10;99.90
16995;DHT22;8614;48.522;9.206;2023-03-01T04:07:46;-0.10;99.90
16995;DHT22;8614;48.522;9.206;2023-03-01T04:10:15;-0.10;99.90
16995;DHT22;8614;48.522;9.206;2023-03-01T04:12:43;0.00;99.90
16995;DHT22;8614;48.522;9.206;2023-03-01T04:15:11;0.00;99.90
16995;DHT22;8614;48.522;9.206;2023-03-01T04:17:42;0.00;99.90
16995;DHT22;8614;48.522;9.206;2023-03-01T04:20:11;0.00;99.90
16995;DHT22;8614;48.522;9.206;2023-03-01T04:22:39;0.00;99.90
16995;DHT22;8614;48.522;9.206;2023-03-01T04:25:08;0.00;99.90
16995;DHT22;8614;48.522;9.206;2023-03-01T04:27:40;0.00;99.90
16995;DHT22;8614;48.522;9.206;2023-03-01T04:30:08;0.00;99.90
16995;DHT22;8614;48.522;9.206;2023-03-01T04:32:35;0.00;99.90
16995;DHT22;8614;48.522;9.206;2023-03-01T04:35:03;0.10;99.90
16995;DHT22;8614;48.522;9.206;2023-03-01T04:37:30;0.10;99.90
16995;DHT22;8614;48.522;9.206;2023-03-01T04:39:56;0.10;99.90
16995;DHT22;8614;48.522;9.206;2023-03-01T04:42:25;0.20;99.90
16995;DHT22;8614;48.522;9.206;2023-03-01T04:44:52;0.10;99.90
16995;DHT22;8614;48.522;9.206;2023-03-01T04:47:19;0.10;99.90
16995;DHT22;8614;48.522;9.206;2023-03-01T04:49:46;0.10;99.90
16995;DHT22;8614;48.522;9.206;2023-03-01T04:52:12;0.10;99.90
16995;DHT22;8614;48.522;9.206;2023-03-01T04:54:39;0.10;99.90
16995;DHT22;8614;48.522;9.206;2023-03-01T04:57:06;0.10;99.90
16995;DHT22;8614;48.522;9.206;2023-03-01T04:59:34;0.10;99.90
16995;DHT22;8614;48.522;9.206;2023-03-01T05:02:02;0.10;99.90
16995;DHT22;8614;48.522;9.206;2023-03-01T05:04:30;0.10;99.90
16995;DHT22;8614;48.522;9.206;2023-03-01T05:06:57;0.10;99.90
16995;DHT22;8614;48.522;9.206;2023-03-01T05:09:24;0.10;99.90
16995;DHT22;8614;48.522;9.206;2023-03-01T05:11:51;0.10;99.90
16995;DHT22;8614;48.522;9.206;2023-03-01T05:14:18;0.10;99.90
16995;DHT22;8614;48.522;9.206;2023-03-01T05:16:46;0.10;99.90
16995;DHT22;8614;48.522;9.206;2023-03-01T05:19:12;0.10;99.90
16995;DHT22;8614;48.522;9.206;2023-03-01T05:21:41;0.10;99.90
16995;DHT22;8614;48.522;9.206;2023-03-01T05:24:22;0.10;99.90
16995;DHT22;8614;48.522;9.206;2023-03-01T05:26:49;0.10;99.90
16995;DHT22;8614;48.522;9.206;2023-03-01T05:29:17;0.20;99.90
16995;DHT22;8614;48.522;9.206;2023-03-01T05:31:52;0.20;99.90
16995;DHT22;8614;48.522;9.206;2023-03-01T05:34:23;0.20;99.90
16995;DHT22;8614;48.522;9.206;2023-03-01T05:36:51;0.30;99.90
16995;DHT22;8614;48.522;9.206;2023-03-01T05:39:19;0.20;99.90
16995;DHT22;8614;48.522;9.206;2023-03-01T05:41:47;0.10;99.90
16995;DHT22;8614;48.522;9.206;2023-03-01T05:44:14;0.10;99.90
16995;DHT22;8614;48.522;9.206;2023-03-01T05:46:41;0.20;99.90
16995;DHT22;8614;48.522;9.206;2023-03-01T05:49:09;0.30;99.90
16995;DHT22;8614;48.522;9.206;2023-03-01T05:51:36;0.20;99.90
16995;DHT22;8614;48.522;9.206;2023-03-01T05:54:03;0.20;99.90
16995;DHT22;8614;48.522;9.206;2023-03-01T05:56:32;0.30;99.90
16995;DHT22;8614;48.522;9.206;2023-03-01T05:58:59;0.20;99.90
16995;DHT22;8614;48.522;9.206;2023-03-01T06:01:27;0.20;99.90
16995;DHT22;8614;48.522;9.206;2023-03-01T06:03:55;0.30;99.90
16995;DHT22;8614;48.522;9.206;2023-03-01T06:06:23;0.30;99.90
16995;DHT22;8614;48.522;9.206;2023-03-01T06:08:50;0.40;99.90
16995;DHT22;8614;48.522;9.206;2023-03-01T06:11:18;0.40;99.90
16995;DHT22;8614;48.522;9.206;2023-03-01T06:13:45;0.40;99.90
16995;DHT22;8614;48.522;9.206;2023-03-01T06:16:12;0.40;99.90
16995;DHT22;8614;48.522;9.206;2023-03-01T06:18:40;0.40;99.90
16995;DHT22;8614;48.522;9.206;2023-03-01T06:21:07;0.40;99.90
16995;DHT22;8614;48.522;9.206;2023-03-01T06:23:36;0.40;99.90
16995;DHT22;8614;48.522;9.206;2023-03-01T06:26:05;0.50;99.90
16995;DHT22;8614;48.522;9.206;2023-03-01T06:28:32;0.50;99.90
16995;DHT22;8614;48.522;9.206;2023-03-01T06:30:59;0.50;99.90
16995;DHT22;8614;48.522;9.206;2023-03-01T06:33:26;0.50;99.90
16995;DHT22;8614;48.522;9.206;2023-03-01T06:35:54;0.50;99.90
16995;DHT22;8614;48.522;9.206;2023-03-01T06:38:22;0.40;99.90
16995;DHT22;8614;48.522;9.206;2023-03-01T06:40:53;0.30;99.90
16995;DHT22;8614;48.522;9.206;2023-03-01T06:43:20;0.30;99.90
16995;DHT22;8614;48.522;9.206;2023-03-01T06:45:47;0.30;99.90
16995;DHT22;8614;48.522;9.206;2023-03-01T06:48:14;0.40;99.90
16995;DHT22;8614;48.522;9.206;2023-03-01T06:50:41;0.40;99.90
16995;DHT22;8614;48.522;9.206;2023-03-01T06:53:08;0.50;99.90
16995;DHT22;8614;48.522;9.206;2023-03-01T06:55:35;0.80;99.90
16995;DHT22;8614;48.522;9.206;2023-03-01T06:58:03;0.90;99.90
16995;DHT22;8614;48.522;9.206;2023-03-01T07:00:30;1.20;99.90
16995;DHT22;8614;48.522;9.206;2023-03-01T07:02:59;1.40;99.90
16995;DHT22;8614;48.522;9.206;2023-03-01T07:05:27;1.60;99.90
16995;DHT22;8614;48.522;9.206;2023-03-01T07:07:54;1.80;99.90
16995;DHT22;8614;48.522;9.206;2023-03-01T07:10:22;1.80;99.90
16995;DHT22;8614;48.522;9.206;2023-03-01T07:12:49;2.00;99.90
16995;DHT22;8614;48.522;9.206;2023-03-01T07:15:17;2.00;99.90
16995;DHT22;8614;48.522;9.206;2023-03-01T07:17:44;2.10;99.90
16995;DHT22;8614;48.522;9.206;2023-03-01T07:20:13;2.20;99.90
16995;DHT22;8614;48.522;9.206;2023-03-01T07:22:40;2.40;99.90
16995;DHT22;8614;48.522;9.206;2023-03-01T07:25:08;2.50;99.90
16995;DHT22;8614;48.522;9.206;2023-03-01T07:27:36;2.70;99.90
16995;DHT22;8614;48.522;9.206;2023-03-01T07:30:04;2.70;99.90
16995;DHT22;8614;48.522;9.206;2023-03-01T07:32:32;2.70;99.90
16995;DHT22;8614;48.522;9.206;2023-03-01T07:34:59;2.60;99.90
16995;DHT22;8614;48.522;9.206;2023-03-01T07:37:26;2.60;99.90
16995;DHT22;8614;48.522;9.206;2023-03-01T07:39:53;2.50;99.90
16995;DHT22;8614;48.522;9.206;2023-03-01T07:42:20;2.40;99.90
16995;DHT22;8614;48.522;9.206;2023-03-01T07:44:46;2.30;99.90
16995;DHT22;8614;48.522;9.206;2023-03-01T07:47:13;2.30;99.90
16995;DHT22;8614;48.522;9.206;2023-03-01T07:49:41;2.30;99.90
16995;DHT22;8614;48.522;9.206;2023-03-01T07:52:10;2.50;99.90
16995;DHT22;8614;48.522;9.206;2023-03-01T07:54:37;2.80;99.90
16995;DHT22;8614;48.522;9.206;2023-03-01T07:57:04;3.00;99.90
16995;DHT22;8614;48.522;9.206;2023-03-01T07:59:31;2.90;99.90
16995;DHT22;8614;48.522;9.206;2023-03-01T08:01:58;3.00;99.90
16995;DHT22;8614;48.522;9.206;2023-03-01T08:04:25;3.20;99.90
16995;DHT22;8614;48.522;9.206;2023-03-01T08:06:53;3.50;99.90
16995;DHT22;8614;48.522;9.206;2023-03-01T08:09:20;3.80;99.90
16995;DHT22;8614;48.522;9.206;2023-03-01T08:11:47;3.70;99.90
16995;DHT22;8614;48.522;9.206;2023-03-01T08:14:14;3.90;99.90
16995;DHT22;8614;48.522;9.206;2023-03-01T08:16:41;4.10;99.90
16995;DHT22;8614;48.522;9.206;2023-03-01T08:19:10;4.00;99.90
16995;DHT22;8614;48.522;9.206;2023-03-01T08:21:37;4.10;99.90
16995;DHT22;8614;48.522;9.206;2023-03-01T08:24:06;4.20;99.90
16995;DHT22;8614;48.522;9.206;2023-03-01T08:26:36;3.90;99.90
16995;DHT22;8614;48.522;9.206;2023-03-01T08:29:03;4.00;99.90
16995;DHT22;8614;48.522;9.206;2023-03-01T08:31:32;4.00;99.90
16995;DHT22;8614;48.522;9.206;2023-03-01T08:34:02;4.20;99.90
16995;DHT22;8614;48.522;9.206;2023-03-01T08:36:31;4.40;99.90
16995;DHT22;8614;48.522;9.206;2023-03-01T08:38:59;4.10;99.90
16995;DHT22;8614;48.522;9.206;2023-03-01T08:41:27;4.40;99.90
16995;DHT22;8614;48.522;9.206;2023-03-01T08:43:55;4.50;99.90
16995;DHT22;8614;48.522;9.206;2023-03-01T08:46:24;4.30;99.90
16995;DHT22;8614;48.522;9.206;2023-03-01T08:48:52;4.10;99.90
16995;DHT22;8614;48.522;9.206;2023-03-01T08:51:21;4.10;99.90
16995;DHT22;8614;48.522;9.206;2023-03-01T08:53:48;3.90;99.90
16995;DHT22;8614;48.522;9.206;2023-03-01T08:56:16;4.10;99.90
16995;DHT22;8614;48.522;9.206;2023-03-01T08:58:46;4.60;99.90
16995;DHT22;8614;48.522;9.206;2023-03-01T09:01:16;4.70;99.90
16995;DHT22;8614;48.522;9.206;2023-03-01T09:03:45;5.00;99.90
16995;DHT22;8614;48.522;9.206;2023-03-01T09:06:12;5.10;99.90
16995;DHT22;8614;48.522;9.206;2023-03-01T09:08:41;5.40;99.90
16995;DHT22;8614;48.522;9.206;2023-03-01T09:11:12;5.60;99.90
16995;DHT22;8614;48.522;9.206;2023-03-01T09:13:41;5.60;99.90
16995;DHT22;8614;48.522;9.206;2023-03-01T09:16:11;5.70;99.90
16995;DHT22;8614;48.522;9.206;2023-03-01T09:18:39;5.60;99.90
16995;DHT22;8614;48.522;9.206;2023-03-01T09:21:07;6.00;99.90
16995;DHT22;8614;48.522;9.206;2023-03-01T09:23:35;6.20;99.90
16995;DHT22;8614;48.522;9.206;2023-03-01T09:26:04;6.30;99.90
16995;DHT22;8614;48.522;9.206;2023-03-01T09:28:31;6.10;99.90
16995;DHT22;8614;48.522;9.206;2023-03-01T09:30:58;5.90;99.90
16995;DHT22;8614;48.522;9.206;2023-03-01T09:33:27;6.00;99.90
16995;DHT22;8614;48.522;9.206;2023-03-01T09:35:57;6.00;99.90
16995;DHT22;8614;48.522;9.206;2023-03-01T09:38:25;6.20;99.90
16995;DHT22;8614;48.522;9.206;2023-03-01T09:40:52;6.30;99.90
16995;DHT22;8614;48.522;9.206;2023-03-01T09:43:25;6.70;99.90
16995;DHT22;8614;48.522;9.206;2023-03-01T09:46:00;7.00;99.90
16995;DHT22;8614;48.522;9.206;2023-03-01T09:48:36;7.10;99.90
16995;DHT22;8614;48.522;9.206;2023-03-01T09:51:06;7.00;99.90
16995;DHT22;8614;48.522;9.206;2023-03-01T09:53:35;7.00;99.90
16995;DHT22;8614;48.522;9.206;2023-03-01T09:56:05;6.80;99.90
16995;DHT22;8614;48.522;9.206;2023-03-01T09:58:41;6.60;99.90
16995;DHT22;8614;48.522;9.206;2023-03-01T10:01:27;6.70;99.90
16995;DHT22;8614;48.522;9.206;2023-03-01T10:04:27;6.80;99.90
16995;DHT22;8614;48.522;9.206;2023-03-01T10:07:05;7.00;99.90
16995;DHT22;8614;48.522;9.206;2023-03-01T10:09:40;6.80;99.90
16995;DHT22;8614;48.522;9.206;2023-03-01T10:12:11;6.80;99.90
16995;DHT22;8614;48.522;9.206;2023-03-01T10:14:43;6.70;99.90
16995;DHT22;8614;48.522;9.206;2023-03-01T10:17:24;6.80;99.90
16995;DHT22;8614;48.522;9.206;2023-03-01T10:19:54;6.50;99.90
16995;DHT22;8614;48.522;9.206;2023-03-01T10:22:24;6.50;99.90
16995;DHT22;8614;48.522;9.206;2023-03-01T10:24:58;6.50;99.90
16995;DHT22;8614;48.522;9.206;2023-03-01T10:27:34;6.30;99.90
16995;DHT22;8614;48.522;9.206;2023-03-01T10:30:09;6.20;99.90
16995;DHT22;8614;48.522;9.206;2023-03-01T10:32:41;6.10;99.90
16995;DHT22;8614;48.522;9.206;2023-03-01T10:35:18;5.90;99.90
16995;DHT22;8614;48.522;9.206;2023-03-01T10:38:02;6.20;99.90
16995;DHT22;8614;48.522;9.206;2023-03-01T10:40:29;6.20;99.90
16995;DHT22;8614;48.522;9.206;2023-03-01T10:42:58;5.90;99.90
16995;DHT22;8614;48.522;9.206;2023-03-01T10:45:35;6.00;99.90
16995;DHT22;8614;48.522;9.206;2023-03-01T10:48:11;6.10;99.90
16995;DHT22;8614;48.522;9.206;2023-03-01T10:50:42;6.20;99.90
16995;DHT22;8614;48.522;9.206;2023-03-01T10:53:26;6.10;99.90
16995;DHT22;8614;48.522;9.206;2023-03-01T10:56:00;6.20;99.90
16995;DHT22;8614;48.522;9.206;2023-03-01T10:58:28;6.30;99.90
16995;DHT22;8614;48.522;9.206;2023-03-01T11:00:57;6.40;99.90
16995;DHT22;8614;48.522;9.206;2023-03-01T11:03:26;6.50;99.90
16995;DHT22;8614;48.522;9.206;2023-03-01T11:06:00;6.30;99.90
16995;DHT22;8614;48.522;9.206;2023-03-01T11:08:40;6.20;99.90
16995;DHT22;8614;48.522;9.206;2023-03-01T11:11:17;6.30;99.90
16995;DHT22;8614;48.522;9.206;2023-03-01T11:13:52;6.30;99.90
16995;DHT22;8614;48.522;9.206;2023-03-01T11:16:25;6.20;99.90
16995;DHT22;8614;48.522;9.206;2023-03-01T11:19:01;6.30;99.90
16995;DHT22;8614;48.522;9.206;2023-03-01T11:21:32;6.30;99.90
16995;DHT22;8614;48.522;9.206;2023-03-01T11:24:01;6.20;99.90
16995;DHT22;8614;48.522;9.206;2023-03-01T11:26:31;6.20;99.90
16995;DHT22;8614;48.522;9.206;2023-03-01T11:29:05;6.30;99.90
16995;DHT22;8614;48.522;9.206;2023-03-01T11:31:34;6.10;99.90
16995;DHT22;8614;48.522;9.206;2023-03-01T11:34:09;6.20;99.90
16995;DHT22;8614;48.522;9.206;2023-03-01T11:36:44;6.20;99.90
16995;DHT22;8614;48.522;9.206;2023-03-01T11:39:23;6.10;99.90
16995;DHT22;8614;48.522;9.206;2023-03-01T11:42:00;6.20;99.90
16995;DHT22;8614;48.522;9.206;2023-03-01T11:44:31;6.20;99.90
16995;DHT22;8614;48.522;9.206;2023-03-01T11:47:18;6.20;99.90
16995;DHT22;8614;48.522;9.206;2023-03-01T11:50:03;6.30;99.90
16995;DHT22;8614;48.522;9.206;2023-03-01T11:52:40;6.40;99.90
16995;DHT22;8614;48.522;9.206;2023-03-01T11:55:30;6.50;99.90
16995;DHT22;8614;48.522;9.206;2023-03-01T11:58:12;6.50;99.90
16995;DHT22;8614;48.522;9.206;2023-03-01T12:00:57;6.50;99.90
16995;DHT22;8614;48.522;9.206;2023-03-01T12:03:39;6.60;99.90
16995;DHT22;8614;48.522;9.206;2023-03-01T12:06:24;6.60;99.90
16995;DHT22;8614;48.522;9.206;2023-03-01T12:09:02;6.60;99.90
16995;DHT22;8614;48.522;9.206;2023-03-01T12:11:40;6.60;99.90
16995;DHT22;8614;48.522;9.206;2023-03-01T12:14:22;6.70;99.90
16995;DHT22;8614;48.522;9.206;2023-03-01T12:17:28;6.90;99.90
16995;DHT22;8614;48.522;9.206;2023-03-01T12:20:08;6.90;99.90
16995;DHT22;8614;48.522;9.206;2023-03-01T12:22:51;6.90;99.90
16995;DHT22;8614;48.522;9.206;2023-03-01T12:25:25;6.80;99.90
16995;DHT22;8614;48.522;9.206;2023-03-01T12:28:13;6.90;99.90
16995;DHT22;8614;48.522;9.206;2023-03-01T12:30:57;6.90;99.90
16995;DHT22;8614;48.522;9.206;2023-03-01T12:33:33;7.00;99.90
16995;DHT22;8614;48.522;9.206;2023-03-01T12:36:16;7.10;99.90
16995;DHT22;8614;48.522;9.206;2023-03-01T12:38:49;7.00;99.90
16995;DHT22;8614;48.522;9.206;2023-03-01T12:41:33;7.10;99.90
16995;DHT22;8614;48.522;9.206;2023-03-01T12:44:12;7.00;99.90
16995;DHT22;8614;48.522;9.206;2023-03-01T12:46:56;7.00;99.90
16995;DHT22;8614;48.522;9.206;2023-03-01T12:49:31;7.00;99.90
16995;DHT22;8614;48.522;9.206;2023-03-01T12:52:02;7.10;99.90
16995;DHT22;8614;48.522;9.206;2023-03-01T12:54:36;7.20;99.90
16995;DHT22;8614;48.522;9.206;2023-03-01T12:57:12;7.10;99.90
16995;DHT22;8614;48.522;9.206;2023-03-01T12:59:47;7.20;99.90
16995;DHT22;8614;48.522;9.206;2023-03-01T13:02:23;7.20;99.90
16995;DHT22;8614;48.522;9.206;2023-03-01T13:05:00;7.20;99.90
16995;DHT22;8614;48.522;9.206;2023-03-01T13:07:33;7.20;99.90
16995;DHT22;8614;48.522;9.206;2023-03-01T13:10:17;7.20;99.90
16995;DHT22;8614;48.522;9.206;2023-03-01T13:13:02;7.30;99.90
16995;DHT22;8614;48.522;9.206;2023-03-01T13:15:32;7.40;99.90
16995;DHT22;8614;48.522;9.206;2023-03-01T13:18:00;7.40;99.90
16995;DHT22;8614;48.522;9.206;2023-03-01T13:20:32;7.40;99.90
16995;DHT22;8614;48.522;9.206;2023-03-01T13:23:06;7.50;99.90
16995;DHT22;8614;48.522;9.206;2023-03-01T13:25:33;7.50;99.90
16995;DHT22;8614;48.522;9.206;2023-03-01T13:28:36;7.50;99.90
16995;DHT22;8614;48.522;9.206;2023-03-01T13:31:05;7.50;99.90
16995;DHT22;8614;48.522;9.206;2023-03-01T13:33:45;7.60;99.90
16995;DHT22;8614;48.522;9.206;2023-03-01T13:36:47;7.60;99.90
16995;DHT22;8614;48.522;9.206;2023-03-01T13:39:39;7.60;99.90
16995;DHT22;8614;48.522;9.206;2023-03-01T13:42:32;7.60;99.90
16995;DHT22;8614;48.522;9.206;2023-03-01T13:45:01;7.60;99.90
16995;DHT22;8614;48.522;9.206;2023-03-01T13:47:28;7.60;99.90
16995;DHT22;8614;48.522;9.206;2023-03-01T13:52:35;8.20;99.90
16995;DHT22;8614;48.522;9.206;2023-03-01T13:55:06;7.80;99.90
16995;DHT22;8614;48.522;9.206;2023-03-01T13:57:44;7.90;99.90
16995;DHT22;8614;48.522;9.206;2023-03-01T14:00:28;7.80;99.90
16995;DHT22;8614;48.522;9.206;2023-03-01T14:03:09;7.80;99.90
16995;DHT22;8614;48.522;9.206;2023-03-01T14:05:37;7.70;99.90
16995;DHT22;8614;48.522;9.206;2023-03-01T14:08:05;7.80;99.90
16995;DHT22;8614;48.522;9.206;2023-03-01T14:10:39;8.00;99.90
16995;DHT22;8614;48.522;9.206;2023-03-01T14:13:21;7.80;99.90
16995;DHT22;8614;48.522;9.206;2023-03-01T14:16:04;7.80;99.90
16995;DHT22;8614;48.522;9.206;2023-03-01T14:18:38;7.70;99.90
16995;DHT22;8614;48.522;9.206;2023-03-01T14:21:08;8.30;99.90
16995;DHT22;8614;48.522;9.206;2023-03-01T14:23:35;7.80;99.90
16995;DHT22;8614;48.522;9.206;2023-03-01T14:26:05;7.90;99.90
16995;DHT22;8614;48.522;9.206;2023-03-01T14:28:36;7.80;99.90
16995;DHT22;8614;48.522;9.206;2023-03-01T14:31:30;7.90;99.90
16995;DHT22;8614;48.522;9.206;2023-03-01T14:33:58;8.00;99.90
16995;DHT22;8614;48.522;9.206;2023-03-01T14:36:27;8.00;99.90
16995;DHT22;8614;48.522;9.206;2023-03-01T14:38:54;8.00;99.90
16995;DHT22;8614;48.522;9.206;2023-03-01T14:41:23;8.00;99.90
16995;DHT22;8614;48.522;9.206;2023-03-01T14:43:52;8.00;99.90
16995;DHT22;8614;48.522;9.206;2023-03-01T14:46:26;8.10;99.90
16995;DHT22;8614;48.522;9.206;2023-03-01T14:48:58;8.10;99.90
16995;DHT22;8614;48.522;9.206;2023-03-01T14:51:27;8.00;99.90
16995;DHT22;8614;48.522;9.206;2023-03-01T14:53:55;8.10;99.90
16995;DHT22;8614;48.522;9.206;2023-03-01T14:56:22;8.10;99.90
16995;DHT22;8614;48.522;9.206;2023-03-01T14:58:51;8.00;99.90
16995;DHT22;8614;48.522;9.206;2023-03-01T15:01:18;8.00;99.90
16995;DHT22;8614;48.522;9.206;2023-03-01T15:03:49;8.00;99.90
16995;DHT22;8614;48.522;9.206;2023-03-01T15:06:18;8.00;99.90
16995;DHT22;8614;48.522;9.206;2023-03-01T15:08:48;8.00;99.90
16995;DHT22;8614;48.522;9.206;2023-03-01T15:11:21;7.90;99.90
16995;DHT22;8614;48.522;9.206;2023-03-01T15:13:50;7.90;99.90
16995;DHT22;8614;48.522;9.206;2023-03-01T15:16:18;7.90;99.90
16995;DHT22;8614;48.522;9.206;2023-03-01T15:18:48;8.00;99.90
16995;DHT22;8614;48.522;9.206;2023-03-01T15:21:18;7.90;99.90
16995;DHT22;8614;48.522;9.206;2023-03-01T15:23:49;7.60;99.90
16995;DHT22;8614;48.522;9.206;2023-03-01T15:26:24;7.60;99.90
16995;DHT22;8614;48.522;9.206;2023-03-01T15:28:54;7.60;99.90
16995;DHT22;8614;48.522;9.206;2023-03-01T15:31:25;7.50;99.90
16995;DHT22;8614;48.522;9.206;2023-03-01T15:34:08;7.50;99.90
16995;DHT22;8614;48.522;9.206;2023-03-01T15:36:41;7.50;99.90
16995;DHT22;8614;48.522;9.206;2023-03-01T15:39:35;7.50;99.90
16995;DHT22;8614;48.522;9.206;2023-03-01T15:42:05;7.40;99.90
16995;DHT22;8614;48.522;9.206;2023-03-01T15:44:34;7.30;99.90
16995;DHT22;8614;48.522;9.206;2023-03-01T15:47:05;7.30;99.90
16995;DHT22;8614;48.522;9.206;2023-03-01T15:49:39;7.20;99.90
16995;DHT22;8614;48.522;9.206;2023-03-01T15:52:12;7.20;99.90
16995;DHT22;8614;48.522;9.206;2023-03-01T15:54:39;7.20;99.90
16995;DHT22;8614;48.522;9.206;2023-03-01T15:57:12;7.10;99.90
16995;DHT22;8614;48.522;9.206;2023-03-01T15:59:40;7.10;99.90
16995;DHT22;8614;48.522;9.206;2023-03-01T16:02:09;7.10;99.90
16995;DHT22;8614;48.522;9.206;2023-03-01T16:04:38;7.10;99.90
16995;DHT22;8614;48.522;9.206;2023-03-01T16:07:05;7.10;99.90
16995;DHT22;8614;48.522;9.206;2023-03-01T16:09:33;7.00;99.90
16995;DHT22;8614;48.522;9.206;2023-03-01T16:12:00;7.00;99.90
16995;DHT22;8614;48.522;9.206;2023-03-01T16:14:27;6.90;99.90
16995;DHT22;8614;48.522;9.206;2023-03-01T16:16:55;6.80;99.90
16995;DHT22;8614;48.522;9.206;2023-03-01T16:19:22;6.80;99.90
16995;DHT22;8614;48.522;9.206;2023-03-01T16:21:51;6.70;99.90
16995;DHT22;8614;48.522;9.206;2023-03-01T16:24:18;6.70;99.90
16995;DHT22;8614;48.522;9.206;2023-03-01T16:26:45;6.60;99.90
16995;DHT22;8614;48.522;9.206;2023-03-01T16:29:12;6.60;99.90
16995;DHT22;8614;48.522;9.206;2023-03-01T16:31:40;6.50;99.90
16995;DHT22;8614;48.522;9.206;2023-03-01T16:34:07;6.50;99.90
16995;DHT22;8614;48.522;9.206;2023-03-01T16:36:34;6.40;99.90
16995;DHT22;8614;48.522;9.206;2023-03-01T16:39:03;6.40;99.90
16995;DHT22;8614;48.522;9.206;2023-03-01T16:41:32;6.30;99.90
16995;DHT22;8614;48.522;9.206;2023-03-01T16:44:04;6.30;99.90
16995;DHT22;8614;48.522;9.206;2023-03-01T16:46:36;6.20;99.90
16995;DHT22;8614;48.522;9.206;2023-03-01T16:49:02;6.20;99.90
16995;DHT22;8614;48.522;9.206;2023-03-01T16:51:29;6.10;99.90
16995;DHT22;8614;48.522;9.206;2023-03-01T16:53:57;6.10;99.90
16995;DHT22;8614;48.522;9.206;2023-03-01T16:56:39;6.00;99.90
16995;DHT22;8614;48.522;9.206;2023-03-01T16:59:06;5.90;99.90
16995;DHT22;8614;48.522;9.206;2023-03-01T17:01:33;5.90;99.90
16995;DHT22;8614;48.522;9.206;2023-03-01T17:04:08;5.90;99.90
16995;DHT22;8614;48.522;9.206;2023-03-01T17:06:52;5.80;99.90
16995;DHT22;8614;48.522;9.206;2023-03-01T17:14:11;5.70;99.90
16995;DHT22;8614;48.522;9.206;2023-03-01T17:21:09;5.70;99.90
16995;DHT22;8614;48.522;9.206;2023-03-01T17:24:13;5.60;99.90
16995;DHT22;8614;48.522;9.206;2023-03-01T17:27:43;5.50;99.90
16995;DHT22;8614;48.522;9.206;2023-03-01T17:30:49;5.40;99.90
16995;DHT22;8614;48.522;9.206;2023-03-01T17:33:16;5.40;99.90
16995;DHT22;8614;48.522;9.206;2023-03-01T17:35:44;5.30;99.90
16995;DHT22;8614;48.522;9.206;2023-03-01T17:38:26;5.30;99.90
16995;DHT22;8614;48.522;9.206;2023-03-01T17:40:53;5.30;99.90
16995;DHT22;8614;48.522;9.206;2023-03-01T17:43:20;5.20;99.90
16995;DHT22;8614;48.522;9.206;2023-03-01T17:45:48;5.20;99.90
16995;DHT22;8614;48.522;9.206;2023-03-01T17:48:17;5.20;99.90
16995;DHT22;8614;48.522;9.206;2023-03-01T17:50:44;5.10;99.90
16995;DHT22;8614;48.522;9.206;2023-03-01T17:53:11;5.10;99.90
16995;DHT22;8614;48.522;9.206;2023-03-01T17:55:40;5.10;99.90
16995;DHT22;8614;48.522;9.206;2023-03-01T17:58:08;5.10;99.90
16995;DHT22;8614;48.522;9.206;2023-03-01T18:00:35;5.10;99.90
16995;DHT22;8614;48.522;9.206;2023-03-01T18:03:04;5.10;99.90
16995;DHT22;8614;48.522;9.206;2023-03-01T18:05:31;5.10;99.90
16995;DHT22;8614;48.522;9.206;2023-03-01T18:07:58;5.20;99.90
16995;DHT22;8614;48.522;9.206;2023-03-01T18:10:25;5.10;99.90
16995;DHT22;8614;48.522;9.206;2023-03-01T18:12:52;5.10;99.90
16995;DHT22;8614;48.522;9.206;2023-03-01T18:15:19;5.10;99.90
16995;DHT22;8614;48.522;9.206;2023-03-01T18:17:45;5.10;99.90
16995;DHT22;8614;48.522;9.206;2023-03-01T18:20:14;5.00;99.90
16995;DHT22;8614;48.522;9.206;2023-03-01T18:22:42;4.90;99.90
16995;DHT22;8614;48.522;9.206;2023-03-01T18:25:10;4.90;99.90
16995;DHT22;8614;48.522;9.206;2023-03-01T18:27:36;4.80;99.90
16995;DHT22;8614;48.522;9.206;2023-03-01T18:30:04;4.80;99.90
16995;DHT22;8614;48.522;9.206;2023-03-01T18:32:31;4.80;99.90
16995;DHT22;8614;48.522;9.206;2023-03-01T18:34:58;4.80;99.90
16995;DHT22;8614;48.522;9.206;2023-03-01T18:37:26;4.80;99.90
16995;DHT22;8614;48.522;9.206;2023-03-01T18:39:53;4.80;99.90
16995;DHT22;8614;48.522;9.206;2023-03-01T18:42:20;4.80;99.90
16995;DHT22;8614;48.522;9.206;2023-03-01T18:44:47;4.80;99.90
16995;DHT22;8614;48.522;9.206;2023-03-01T18:47:15;4.80;99.90
16995;DHT22;8614;48.522;9.206;2023-03-01T18:49:42;4.80;99.90
16995;DHT22;8614;48.522;9.206;2023-03-01T18:52:09;4.70;99.90
16995;DHT22;8614;48.522;9.206;2023-03-01T18:54:37;4.70;99.90
16995;DHT22;8614;48.522;9.206;2023-03-01T18:57:04;4.70;99.90
16995;DHT22;8614;48.522;9.206;2023-03-01T18:59:31;4.70;99.90
16995;DHT22;8614;48.522;9.206;2023-03-01T19:01:58;4.70;99.90
16995;DHT22;8614;48.522;9.206;2023-03-01T19:04:25;4.70;99.90
16995;DHT22;8614;48.522;9.206;2023-03-01T19:06:52;4.70;99.90
16995;DHT22;8614;48.522;9.206;2023-03-01T19:09:19;4.60;99.90
16995;DHT22;8614;48.522;9.206;2023-03-01T19:11:47;4.60;99.90
16995;DHT22;8614;48.522;9.206;2023-03-01T19:14:14;4.60;99.90
16995;DHT22;8614;48.522;9.206;2023-03-01T19:16:40;4.60;99.90
16995;DHT22;8614;48.522;9.206;2023-03-01T19:19:07;4.50;99.90
16995;DHT22;8614;48.522;9.206;2023-03-01T19:21:34;4.50;99.90
16995;DHT22;8614;48.522;9.206;2023-03-01T19:24:01;4.40;99.90
16995;DHT22;8614;48.522;9.206;2023-03-01T19:27:02;4.40;99.90
16995;DHT22;8614;48.522;9.206;2023-03-01T19:29:31;4.30;99.90
16995;DHT22;8614;48.522;9.206;2023-03-01T19:31:58;4.20;99.90
16995;DHT22;8614;48.522;9.206;2023-03-01T19:34:25;4.10;99.90
16995;DHT22;8614;48.522;9.206;2023-03-01T19:36:52;4.10;99.90
16995;DHT22;8614;48.522;9.206;2023-03-01T19:39:18;4.10;99.90